My/aldabra — FFZV — position and weather

sailwx.info

Track history (hours):
 
Tides and Currents Weather Stations Pressure Air Temp Water Temp Dewpoint Dewpoint Depression Visibility Wind Speed Wind Dir Waves Ship Positions

My/aldabra

Last reported at 2015-Jul-31 19:34 UTC. Time now 2015-Jul-31 23:26 UTC.
Position N 39°44' E 012°42'.

Length 24 m.

Type: Ship. MMSI: 228004800.

Date/timePositionNaut miles runAvg speedWind from/ knotsBaromVisibWave heightAir tempDewpointWater temp
2015-Jul-31 19:34N 39°44' E 012°42'130 3.3
2015-Jul-30 04:11N 38°26' E 014°57'0 0.0
2015-Jul-30 03:25N 38°26' E 014°57'0 0.0
2015-Jul-30 02:33N 38°26' E 014°57'0 0.0
2015-Jul-30 01:32N 38°26' E 014°57'21 1.3
2015-Jul-29 09:16N 38°21' E 015°23'810.2
2015-Jul-29 08:32N 38°19' E 015°32'7 7.6
2015-Jul-29 07:34N 38°14' E 015°39'9 8.7
2015-Jul-29 06:34N 38°06' E 015°37'9 9.2
2015-Jul-29 05:33N 37°57' E 015°41'  
2015-Jul-26 07:19N 37°54' E 023°07'11 9.8
2015-Jul-26 06:10N 37°52' E 023°22'6 9.6
2015-Jul-26 05:33N 37°52' E 023°29'9 8.6
2015-Jul-26 04:33N 37°56' E 023°39'0 0.1
2015-Jul-26 03:34N 37°56' E 023°39'0 0.0
2015-Jul-26 02:33N 37°56' E 023°39'0 0.0
2015-Jul-26 01:34N 37°56' E 023°39'0 0.0
2015-Jul-26 00:33N 37°56' E 023°39'0 0.0
2015-Jul-25 23:34N 37°56' E 023°39'0 0.0
2015-Jul-25 22:34N 37°56' E 023°39'0 0.0
2015-Jul-25 21:33N 37°56' E 023°39'0 0.0
2015-Jul-25 20:34N 37°56' E 023°39'0 0.0
2015-Jul-25 19:34N 37°56' E 023°39'0 0.0
2015-Jul-25 18:34N 37°56' E 023°39'0 0.0
2015-Jul-25 17:34N 37°56' E 023°39'0 0.0
2015-Jul-25 16:33N 37°56' E 023°39'0 0.0
2015-Jul-25 15:33N 37°56' E 023°39'0 0.0
2015-Jul-25 14:34N 37°56' E 023°39'0 0.0
2015-Jul-25 13:34N 37°56' E 023°39'0 0.0
2015-Jul-25 12:34N 37°56' E 023°39'0 0.0
2015-Jul-25 11:33N 37°56' E 023°39'0 0.0
2015-Jul-25 10:34N 37°56' E 023°39'0 0.0
2015-Jul-25 09:33N 37°56' E 023°39'0 0.0
2015-Jul-25 08:34N 37°56' E 023°39'0 0.0
2015-Jul-25 07:34N 37°56' E 023°39'0 0.0
2015-Jul-25 06:33N 37°56' E 023°39'0 0.0
2015-Jul-25 05:34N 37°56' E 023°39'0 0.0
2015-Jul-25 04:33N 37°56' E 023°39'0 0.0
2015-Jul-25 03:33N 37°56' E 023°39'0 0.0
2015-Jul-25 02:33N 37°56' E 023°39'0 0.0
2015-Jul-25 01:33N 37°56' E 023°39'0 0.0
2015-Jul-25 00:34N 37°56' E 023°39'0 0.0
2015-Jul-24 23:33N 37°56' E 023°39'0 0.0
2015-Jul-24 22:34N 37°56' E 023°39'0 0.0
2015-Jul-24 21:33N 37°56' E 023°39'0 0.0
2015-Jul-24 20:34N 37°56' E 023°39'0 0.0
2015-Jul-24 19:34N 37°56' E 023°39'0 0.0
2015-Jul-24 18:34N 37°56' E 023°39'0 0.0
2015-Jul-24 17:33N 37°56' E 023°39'0 0.0
2015-Jul-24 16:33N 37°56' E 023°39'0 0.0
2015-Jul-24 15:34N 37°56' E 023°39'0 0.0
2015-Jul-24 14:34N 37°56' E 023°39'0 0.0
2015-Jul-24 13:33N 37°56' E 023°39'0 0.0
2015-Jul-24 12:33N 37°56' E 023°39'0 0.0
2015-Jul-24 11:34N 37°56' E 023°39'0 0.0
2015-Jul-24 10:34N 37°56' E 023°39'0 0.0
2015-Jul-24 09:34N 37°56' E 023°39'0 0.0
2015-Jul-24 08:34N 37°56' E 023°39'0 0.0
2015-Jul-24 07:34N 37°56' E 023°39'0 0.0
2015-Jul-24 06:33N 37°56' E 023°39'0 0.0
2015-Jul-24 05:34N 37°56' E 023°39'0 0.0
2015-Jul-24 04:34N 37°56' E 023°39'0 0.0
2015-Jul-24 03:33N 37°56' E 023°39'0 0.0
2015-Jul-24 02:33N 37°56' E 023°39'0 0.0
2015-Jul-24 01:33N 37°56' E 023°39'0 0.0
2015-Jul-24 00:33N 37°56' E 023°39'0 0.0
2015-Jul-23 23:33N 37°56' E 023°39'0 0.0
2015-Jul-23 22:34N 37°56' E 023°39'0 0.0
2015-Jul-23 21:33N 37°56' E 023°39'0 0.0
2015-Jul-23 20:34N 37°56' E 023°39'0 0.0
2015-Jul-23 19:33N 37°56' E 023°39'0 0.0
2015-Jul-23 18:34N 37°56' E 023°39'0 0.0
2015-Jul-23 17:33N 37°56' E 023°39'0 0.0
2015-Jul-23 16:34N 37°56' E 023°39'0 0.0
2015-Jul-23 15:33N 37°56' E 023°39'0 0.0
2015-Jul-23 14:34N 37°56' E 023°39'0 0.0
2015-Jul-23 13:34N 37°56' E 023°39'0 0.0
2015-Jul-23 12:33N 37°56' E 023°39'0 0.0
2015-Jul-23 11:34N 37°56' E 023°39'0 0.0
2015-Jul-23 10:33N 37°56' E 023°39'0 0.0
2015-Jul-23 09:34N 37°56' E 023°39'6 5.7
2015-Jul-23 08:34N 37°52' E 023°34'9 9.5
2015-Jul-23 07:34N 37°46' E 023°25'11 9.8
2015-Jul-23 06:27N 37°40' E 023°14'4 3.7
2015-Jul-23 05:29N 37°38' E 023°09'0 0.0
2015-Jul-23 04:34N 37°38' E 023°09'0 0.0
2015-Jul-23 03:29N 37°38' E 023°09'0 0.0
2015-Jul-23 02:34N 37°38' E 023°09'0 0.0
2015-Jul-23 01:32N 37°38' E 023°09'0 0.0
2015-Jul-23 00:33N 37°38' E 023°09'0 0.0
2015-Jul-22 23:33N 37°38' E 023°09'0 0.0
2015-Jul-22 22:34N 37°38' E 023°09'0 0.0
2015-Jul-22 21:34N 37°38' E 023°09'0 0.0
2015-Jul-22 20:32N 37°38' E 023°09'0 0.0
2015-Jul-22 19:32N 37°38' E 023°09'0 0.0
2015-Jul-22 18:33N 37°38' E 023°09'0 0.0
2015-Jul-22 17:33N 37°38' E 023°09'0 0.0
2015-Jul-22 16:33N 37°38' E 023°09'0 0.0
2015-Jul-22 15:32N 37°38' E 023°09'0 0.0
2015-Jul-22 14:33N 37°38' E 023°09'0 0.0
2015-Jul-22 11:31N 37°38' E 023°09'0 0.0
2015-Jul-22 10:29N 37°38' E 023°09'0 0.0
2015-Jul-22 09:26N 37°38' E 023°09'0 0.0
2015-Jul-22 08:30N 37°38' E 023°09'0 0.0
2015-Jul-22 07:33N 37°38' E 023°09'0 0.0
2015-Jul-22 06:33N 37°38' E 023°09'0 0.0
2015-Jul-22 05:33N 37°38' E 023°09'0 0.0
2015-Jul-22 04:32N 37°38' E 023°09'0 0.0
2015-Jul-22 03:34N 37°38' E 023°09'0 0.0
2015-Jul-22 02:26N 37°38' E 023°09'0 0.0
2015-Jul-22 01:29N 37°38' E 023°09'0 0.0
2015-Jul-22 00:34N 37°38' E 023°09'0 0.0
2015-Jul-21 23:30N 37°38' E 023°09'0 0.0
2015-Jul-21 22:33N 37°38' E 023°09'0 0.0
2015-Jul-21 21:31N 37°38' E 023°09'0 0.0
2015-Jul-21 20:33N 37°38' E 023°09'  
Track history (hours):
 
Tides and Currents Weather Stations Pressure Air Temp Water Temp Dewpoint Dewpoint Depression Visibility Wind Speed Wind Dir Waves Ship Positions

My/aldabra

Last reported at 2015-Jul-31 19:34 UTC. Time now 2015-Jul-31 23:26 UTC.
Position N 39°44' E 012°42'.

Length 24 m.

Type: Ship. MMSI: 228004800.

Date/timePositionNaut miles runAvg speedWind from/ knotsBaromVisibWave heightAir tempDewpointWater temp
2015-Jul-31 19:34N 39°44' E 012°42'130 3.3
2015-Jul-30 04:11N 38°26' E 014°57'0 0.0
2015-Jul-30 03:25N 38°26' E 014°57'0 0.0
2015-Jul-30 02:33N 38°26' E 014°57'0 0.0
2015-Jul-30 01:32N 38°26' E 014°57'21 1.3
2015-Jul-29 09:16N 38°21' E 015°23'810.2
2015-Jul-29 08:32N 38°19' E 015°32'7 7.6
2015-Jul-29 07:34N 38°14' E 015°39'9 8.7
2015-Jul-29 06:34N 38°06' E 015°37'9 9.2
2015-Jul-29 05:33N 37°57' E 015°41'  
2015-Jul-26 07:19N 37°54' E 023°07'11 9.8
2015-Jul-26 06:10N 37°52' E 023°22'6 9.6
2015-Jul-26 05:33N 37°52' E 023°29'9 8.6
2015-Jul-26 04:33N 37°56' E 023°39'0 0.1
2015-Jul-26 03:34N 37°56' E 023°39'0 0.0
2015-Jul-26 02:33N 37°56' E 023°39'0 0.0
2015-Jul-26 01:34N 37°56' E 023°39'0 0.0
2015-Jul-26 00:33N 37°56' E 023°39'0 0.0
2015-Jul-25 23:34N 37°56' E 023°39'0 0.0
2015-Jul-25 22:34N 37°56' E 023°39'0 0.0
2015-Jul-25 21:33N 37°56' E 023°39'0 0.0
2015-Jul-25 20:34N 37°56' E 023°39'0 0.0
2015-Jul-25 19:34N 37°56' E 023°39'0 0.0
2015-Jul-25 18:34N 37°56' E 023°39'0 0.0
2015-Jul-25 17:34N 37°56' E 023°39'0 0.0
2015-Jul-25 16:33N 37°56' E 023°39'0 0.0
2015-Jul-25 15:33N 37°56' E 023°39'0 0.0
2015-Jul-25 14:34N 37°56' E 023°39'0 0.0
2015-Jul-25 13:34N 37°56' E 023°39'0 0.0
2015-Jul-25 12:34N 37°56' E 023°39'0 0.0
2015-Jul-25 11:33N 37°56' E 023°39'0 0.0
2015-Jul-25 10:34N 37°56' E 023°39'0 0.0
2015-Jul-25 09:33N 37°56' E 023°39'0 0.0
2015-Jul-25 08:34N 37°56' E 023°39'0 0.0
2015-Jul-25 07:34N 37°56' E 023°39'0 0.0
2015-Jul-25 06:33N 37°56' E 023°39'0 0.0
2015-Jul-25 05:34N 37°56' E 023°39'0 0.0
2015-Jul-25 04:33N 37°56' E 023°39'0 0.0
2015-Jul-25 03:33N 37°56' E 023°39'0 0.0
2015-Jul-25 02:33N 37°56' E 023°39'0 0.0
2015-Jul-25 01:33N 37°56' E 023°39'0 0.0
2015-Jul-25 00:34N 37°56' E 023°39'0 0.0
2015-Jul-24 23:33N 37°56' E 023°39'0 0.0
2015-Jul-24 22:34N 37°56' E 023°39'0 0.0
2015-Jul-24 21:33N 37°56' E 023°39'0 0.0
2015-Jul-24 20:34N 37°56' E 023°39'0 0.0
2015-Jul-24 19:34N 37°56' E 023°39'0 0.0
2015-Jul-24 18:34N 37°56' E 023°39'0 0.0
2015-Jul-24 17:33N 37°56' E 023°39'0 0.0
2015-Jul-24 16:33N 37°56' E 023°39'0 0.0
2015-Jul-24 15:34N 37°56' E 023°39'0 0.0
2015-Jul-24 14:34N 37°56' E 023°39'0 0.0
2015-Jul-24 13:33N 37°56' E 023°39'0 0.0
2015-Jul-24 12:33N 37°56' E 023°39'0 0.0
2015-Jul-24 11:34N 37°56' E 023°39'0 0.0
2015-Jul-24 10:34N 37°56' E 023°39'0 0.0
2015-Jul-24 09:34N 37°56' E 023°39'0 0.0
2015-Jul-24 08:34N 37°56' E 023°39'0 0.0
2015-Jul-24 07:34N 37°56' E 023°39'0 0.0
2015-Jul-24 06:33N 37°56' E 023°39'0 0.0
2015-Jul-24 05:34N 37°56' E 023°39'0 0.0
2015-Jul-24 04:34N 37°56' E 023°39'0 0.0
2015-Jul-24 03:33N 37°56' E 023°39'0 0.0
2015-Jul-24 02:33N 37°56' E 023°39'0 0.0
2015-Jul-24 01:33N 37°56' E 023°39'0 0.0
2015-Jul-24 00:33N 37°56' E 023°39'0 0.0
2015-Jul-23 23:33N 37°56' E 023°39'0 0.0
2015-Jul-23 22:34N 37°56' E 023°39'0 0.0
2015-Jul-23 21:33N 37°56' E 023°39'0 0.0
2015-Jul-23 20:34N 37°56' E 023°39'0 0.0
2015-Jul-23 19:33N 37°56' E 023°39'0 0.0
2015-Jul-23 18:34N 37°56' E 023°39'0 0.0
2015-Jul-23 17:33N 37°56' E 023°39'0 0.0
2015-Jul-23 16:34N 37°56' E 023°39'0 0.0
2015-Jul-23 15:33N 37°56' E 023°39'0 0.0
2015-Jul-23 14:34N 37°56' E 023°39'0 0.0
2015-Jul-23 13:34N 37°56' E 023°39'0 0.0
2015-Jul-23 12:33N 37°56' E 023°39'0 0.0
2015-Jul-23 11:34N 37°56' E 023°39'0 0.0
2015-Jul-23 10:33N 37°56' E 023°39'0 0.0
2015-Jul-23 09:34N 37°56' E 023°39'6 5.7
2015-Jul-23 08:34N 37°52' E 023°34'9 9.5
2015-Jul-23 07:34N 37°46' E 023°25'11 9.8
2015-Jul-23 06:27N 37°40' E 023°14'4 3.7
2015-Jul-23 05:29N 37°38' E 023°09'0 0.0
2015-Jul-23 04:34N 37°38' E 023°09'0 0.0
2015-Jul-23 03:29N 37°38' E 023°09'0 0.0
2015-Jul-23 02:34N 37°38' E 023°09'0 0.0
2015-Jul-23 01:32N 37°38' E 023°09'0 0.0
2015-Jul-23 00:33N 37°38' E 023°09'0 0.0
2015-Jul-22 23:33N 37°38' E 023°09'0 0.0
2015-Jul-22 22:34N 37°38' E 023°09'0 0.0
2015-Jul-22 21:34N 37°38' E 023°09'0 0.0
2015-Jul-22 20:32N 37°38' E 023°09'0 0.0
2015-Jul-22 19:32N 37°38' E 023°09'0 0.0
2015-Jul-22 18:33N 37°38' E 023°09'0 0.0
2015-Jul-22 17:33N 37°38' E 023°09'0 0.0
2015-Jul-22 16:33N 37°38' E 023°09'0 0.0
2015-Jul-22 15:32N 37°38' E 023°09'0 0.0
2015-Jul-22 14:33N 37°38' E 023°09'0 0.0
2015-Jul-22 11:31N 37°38' E 023°09'0 0.0
2015-Jul-22 10:29N 37°38' E 023°09'0 0.0
2015-Jul-22 09:26N 37°38' E 023°09'0 0.0
2015-Jul-22 08:30N 37°38' E 023°09'0 0.0
2015-Jul-22 07:33N 37°38' E 023°09'0 0.0
2015-Jul-22 06:33N 37°38' E 023°09'0 0.0
2015-Jul-22 05:33N 37°38' E 023°09'0 0.0
2015-Jul-22 04:32N 37°38' E 023°09'0 0.0
2015-Jul-22 03:34N 37°38' E 023°09'0 0.0
2015-Jul-22 02:26N 37°38' E 023°09'0 0.0
2015-Jul-22 01:29N 37°38' E 023°09'0 0.0
2015-Jul-22 00:34N 37°38' E 023°09'0 0.0
2015-Jul-21 23:30N 37°38' E 023°09'0 0.0
2015-Jul-21 22:33N 37°38' E 023°09'0 0.0
2015-Jul-21 21:31N 37°38' E 023°09'0 0.0
2015-Jul-21 20:33N 37°38' E 023°09'  

Dump ship's entire track history